Latest Weather Observations for Nuriootpa

IDS60801

Issued at 6:01 pm CDT Tuesday 17 October 2017 (issued every 30 minutes, with the page automatically refreshed every 10 minutes)

About weather observations | Map of weather stations | Latest weather observations for SA | Other Formats
Station Details ID: 023373 Name: NURIOOTPA PIRSA Lat: -34.48 Lon: 139.01 Height: 275.0 m
Data from the previous 72 hours. | See also: Recent months at Nuriootpa
Date/Time
CDT
Temp
°C
App
Temp
°C
Dew
Point
°C
Rel
Hum
%
Delta-T
°C
Wind Press
QNH
hPa
Press
MSL
hPa
Rain since
9am
mm
Dir  Spd
km/h
Gust
km/h
Spd
kts
Gust
kts
17/06:00pm 29.4 24.7 6.0 22 12.5 NNE 20 32 11 17 1015.5 1015.2 0.0
17/05:30pm 30.1 25.4 6.0 22 12.9 NNE 20 30 11 16 1015.4 1015.1 0.0
17/05:00pm 30.2 25.4 5.6 21 13.1 NNE 20 32 11 17 1015.4 1015.1 0.0
17/04:30pm 29.6 24.7 5.1 21 12.9 NNE 20 43 11 23 1015.4 1015.1 0.0
17/04:00pm 30.4 24.7 4.7 19 13.5 NNE 24 41 13 22 1015.4 1015.1 0.0
17/03:30pm 30.6 25.3 5.1 20 13.5 NNE 22 33 12 18 1015.6 1015.3 0.0
17/03:00pm 30.4 23.7 3.6 18 13.8 NNE 28 39 15 21 1015.7 1015.4 0.0
17/02:30pm 30.2 24.7 3.9 19 13.6 NNE 22 39 12 21 1016.3 1016.0 0.0
17/02:00pm 29.7 24.1 3.6 19 13.4 NNE 22 39 12 21 1016.6 1016.3 0.0
17/01:30pm 29.4 23.7 2.6 18 13.5 N 22 39 12 21 1016.9 1016.6 0.0
17/01:00pm 29.5 23.6 1.6 16 13.8 NNE 22 37 12 20 1017.3 1017.0 0.0
17/12:30pm 28.8 21.4 -0.4 15 13.9 NNE 28 37 15 20 1017.6 1017.4 0.0
17/12:00pm 28.6 22.0 -0.1 15 13.7 NNE 24 44 13 24 1018.1 1017.8 0.0
17/11:30am 28.5 22.4 2.8 19 12.9 NNE 24 39 13 21 1018.3 1018.0 0.0
17/11:00am 28.3 22.1 2.4 19 12.9 NNE 24 39 13 21 1018.7 1018.4 0.0
17/10:30am 27.3 21.5 2.1 19 12.4 N 22 37 12 20 1018.7 1018.4 0.0
17/10:00am 27.0 22.0 4.6 23 11.5 N 20 33 11 18 1018.8 1018.5 0.0
17/09:30am 25.9 22.2 6.3 28 10.3 N 15 24 8 13 1019.0 1018.7 0.0
17/09:00am 24.5 19.9 5.4 29 9.8 N 19 28 10 15 1019.1 1018.8 0.0
17/08:30am 23.3 20.7 7.6 36 8.3 NNE 11 15 6 8 1019.1 1018.8 0.0
17/08:00am 21.3 19.1 7.8 41 7.1 NNE 9 11 5 6 1019.0 1018.7 0.0
17/07:30am 18.1 16.6 9.0 55 4.8 N 7 11 4 6 1018.7 1018.4 0.0
17/07:00am 14.2 12.4 7.8 65 3.2 ENE 7 9 4 5 1018.4 1018.1 0.0
17/06:30am 14.7 13.6 7.0 60 3.8 NNE 2 6 1 3 1018.2 1017.9 0.0
17/06:00am 12.6 10.9 7.5 71 2.5 E 6 11 3 6 1017.8 1017.6 0.0
17/05:30am 13.0 12.1 7.8 70 2.6 ENE 2 6 1 3 1017.4 1017.1 0.0
17/05:00am 13.8 12.2 8.0 68 2.9 ENE 6 7 3 4 1017.3 1017.0 0.0
17/04:30am 14.9 13.2 7.5 61 3.7 E 6 7 3 4 1017.3 1017.0 0.0
17/04:00am 15.2 13.5 7.7 61 3.8 E 6 7 3 4 1017.4 1017.1 0.0
17/03:30am 17.4 16.0 7.1 50 5.2 NNE 4 6 2 3 1017.4 1017.1 0.0
17/03:00am 20.4 17.4 6.2 39 7.2 NNE 11 17 6 9 1017.3 1017.0 0.0
17/02:30am 20.8 18.2 6.3 39 7.4 N 9 13 5 7 1017.5 1017.2 0.0
17/02:00am 21.9 18.5 5.7 35 8.2 NNE 13 19 7 10 1017.6 1017.4 0.0
17/01:30am 19.5 17.7 7.0 44 6.4 N 6 9 3 5 1017.9 1017.7 0.0
17/01:00am 21.2 18.2 6.0 37 7.7 NE 11 17 6 9 1018.4 1018.1 0.0
17/12:30am 20.5 17.6 6.6 40 7.1 NE 11 13 6 7 1018.7 1018.4 0.0
17/12:00am 20.8 17.6 7.0 40 7.1 NE 13 19 7 10 1018.9 1018.6 0.0
 
Date/Time
CDT
Temp
°C
App
Temp
°C
Dew
Point
°C
Rel
Hum
%
Delta-T
°C
Wind Press
QNH
hPa
Press
MSL
hPa
Rain since
9am
mm
Dir  Spd
km/h
Gust
km/h
Spd
kts
Gust
kts
16/11:30pm 21.8 18.9 6.7 37 7.8 ENE 11 15 6 8 1019.0 1018.7 0.0
16/11:25pm 21.5 19.1 6.8 38 7.6 ENE 9 15 5 8 1019.0 1018.7 0.0
16/11:00pm 16.4 16.1 10.2 66 3.3 ENE 2 7 1 4 1019.0 1018.7 0.0
16/10:30pm 16.9 17.1 10.6 66 3.4 CALM 0 0 0 0 1019.0 1018.7 0.0
16/10:00pm 17.0 17.2 10.7 66 3.4 CALM 0 0 0 0 1019.0 1018.7 0.0
16/09:30pm 18.4 18.5 10.0 58 4.5 CALM 0 0 0 0 1018.9 1018.6 0.0
16/09:00pm 18.9 17.9 10.2 57 4.7 E 6 7 3 4 1018.6 1018.3 0.0
16/08:30pm 20.6 20.6 9.7 49 5.9 CALM 0 0 0 0 1018.2 1017.9 0.0
16/08:00pm 21.7 20.4 9.3 45 6.7 E 6 7 3 4 1017.8 1017.6 0.0
16/07:30pm 25.1 24.6 8.0 33 9.2 CALM 0 6 0 3 1017.7 1017.5 0.0
16/07:00pm 27.7 25.0 5.6 24 11.6 NNE 9 11 5 6 1017.6 1017.4 0.0
16/06:30pm 28.6 24.9 4.7 22 12.4 NNE 13 19 7 10 1017.5 1017.2 0.0
16/06:00pm 29.0 25.2 3.8 20 12.9 NE 13 17 7 9 1017.4 1017.1 0.0
16/05:30pm 29.3 25.2 4.1 20 13.0 NNE 15 20 8 11 1017.3 1017.0 0.0
16/05:00pm 29.5 25.1 4.8 21 12.9 NE 17 24 9 13 1017.3 1017.0 0.0
16/04:30pm 29.6 26.3 4.7 20 13.0 NE 11 19 6 10 1017.5 1017.2 0.0
16/04:00pm 29.2 24.9 5.2 22 12.6 ENE 17 26 9 14 1017.7 1017.5 0.0
16/03:30pm 29.4 25.9 5.6 22 12.6 E 13 26 7 14 1017.9 1017.7 0.0
16/03:00pm 29.3 26.3 7.8 26 11.8 NE 13 20 7 11 1018.6 1018.3 0.0
16/02:30pm 28.9 25.2 6.2 23 12.1 N 15 24 8 13 1018.9 1018.6 0.0
16/02:00pm 28.5 24.3 5.8 23 12.0 NE 17 28 9 15 1019.1 1018.8 0.0
16/01:30pm 28.6 24.0 6.3 24 11.9 NE 20 30 11 16 1019.4 1019.1 0.0
16/01:00pm 27.9 23.4 6.8 26 11.3 NE 20 30 11 16 1019.6 1019.3 0.0
16/12:30pm 28.0 23.5 7.0 26 11.3 NE 20 33 11 18 1020.0 1019.7 0.0
16/12:00pm 27.0 22.5 7.0 28 10.7 NE 20 32 11 17 1020.3 1020.0 0.0
16/11:30am 26.1 21.7 7.4 30 10.0 NE 20 28 11 15 1020.9 1020.7 0.0
16/11:00am 25.5 21.3 7.6 32 9.6 NE 19 28 10 15 1021.2 1021.0 0.0
16/10:30am 24.6 20.5 8.0 34 8.9 NE 19 28 10 15 1021.5 1021.3 0.0
16/10:00am 23.4 19.8 8.5 38 8.0 NE 17 24 9 13 1021.7 1021.5 0.0
16/09:30am 21.8 18.4 9.0 44 6.9 NE 17 20 9 11 1021.9 1021.6 0.0
16/09:00am 20.6 17.4 8.3 45 6.5 NE 15 20 8 11 1021.9 1021.6 0.0
16/08:30am 19.8 17.0 8.6 48 5.9 NE 13 17 7 9 1021.9 1021.6 0.0
16/08:00am 18.9 16.2 7.4 47 5.9 ENE 11 19 6 10 1021.6 1021.4 0.0
16/07:30am 17.8 15.5 7.6 51 5.2 ENE 9 17 5 9 1021.5 1021.3 0.0
16/07:00am 14.6 12.7 7.6 63 3.5 ENE 7 11 4 6 1021.2 1021.0 0.0
16/06:30am 13.9 11.5 7.2 64 3.3 NE 9 11 5 6 1021.0 1020.8 0.0
16/06:00am 15.7 12.9 6.8 55 4.4 E 11 19 6 10 1020.6 1020.3 0.0
16/05:30am 15.4 13.0 6.9 57 4.2 E 9 17 5 9 1020.3 1020.0 0.0
16/05:00am 14.7 12.7 7.3 61 3.7 E 7 13 4 7 1020.3 1020.0 0.0
16/04:30am 13.4 12.0 7.3 66 3.0 E 4 9 2 5 1020.2 1019.9 0.0
16/04:00am 14.3 12.5 7.9 65 3.2 ENE 7 11 4 6 1020.5 1020.2 0.0
16/03:30am 15.2 12.6 7.6 60 3.8 E 11 19 6 10 1020.5 1020.2 0.0
16/03:00am 14.7 12.2 8.4 66 3.2 ESE 11 19 6 10 1020.6 1020.3 0.0
16/02:30am 15.1 11.8 8.2 63 3.5 ESE 15 22 8 12 1020.6 1020.3 0.0
16/02:00am 14.8 11.9 8.3 65 3.3 ESE 13 22 7 12 1020.8 1020.6 0.0
16/01:30am 14.9 11.3 8.4 65 3.3 SE 17 28 9 15 1021.1 1020.9 0.0
16/01:00am 15.3 11.7 8.2 62 3.6 SE 17 24 9 13 1021.3 1021.1 0.0
16/12:30am 15.4 11.9 8.6 64 3.5 SE 17 30 9 16 1021.4 1021.2 0.0
16/12:00am 15.5 11.6 8.7 64 3.5 SE 19 28 10 15 1021.3 1021.1 0.0
 
Date/Time
CDT
Temp
°C
App
Temp
°C
Dew
Point
°C
Rel
Hum
%
Delta-T
°C
Wind Press
QNH
hPa
Press
MSL
hPa
Rain since
9am
mm
Dir  Spd
km/h
Gust
km/h
Spd
kts
Gust
kts
15/11:30pm 15.4 11.3 8.8 65 3.4 SE 20 32 11 17 1021.3 1021.1 0.0
15/11:00pm 14.9 10.9 9.1 68 3.0 SE 20 30 11 16 1021.2 1021.0 0.0
15/10:30pm 14.9 10.9 9.1 68 3.0 SE 20 28 11 15 1021.1 1020.9 0.0
15/10:00pm 15.1 11.0 8.7 65 3.3 SE 20 32 11 17 1021.0 1020.8 0.0
15/09:30pm 15.0 10.1 8.6 65 3.3 SE 24 35 13 19 1021.0 1020.8 0.0
15/09:00pm 15.1 11.0 8.7 65 3.3 SE 20 30 11 16 1020.8 1020.6 0.0
15/08:30pm 15.5 11.5 8.9 65 3.4 SE 20 32 11 17 1020.7 1020.5 0.0
15/08:00pm 16.8 12.9 8.5 58 4.3 SE 19 28 10 15 1020.5 1020.2 0.0
15/07:30pm 18.4 14.3 7.7 49 5.5 SE 19 30 10 16 1020.4 1020.1 0.0
15/07:00pm 20.0 16.2 7.4 44 6.5 SE 17 26 9 14 1020.3 1020.0 0.0
15/06:30pm 22.5 18.0 2.4 26 9.6 ESE 15 24 8 13 1019.9 1019.6 0.0
15/06:00pm 23.0 18.1 2.0 25 10.0 ESE 17 26 9 14 1019.8 1019.5 0.0
15/05:30pm 23.1 18.0 0.7 22 10.4 ESE 17 28 9 15 1019.9 1019.6 0.0
15/05:00pm 23.3 18.6 0.8 22 10.5 ESE 15 28 8 15 1020.2 1019.9 0.0
15/04:30pm 23.3 17.9 1.5 24 10.3 ESE 19 28 10 15 1020.1 1019.8 0.0
15/04:00pm 23.4 18.7 3.1 26 9.9 ESE 17 24 9 13 1020.2 1019.9 0.0
15/03:30pm 22.9 18.7 1.8 25 10.0 ESE 13 28 7 15 1020.5 1020.2 0.0
15/03:00pm 22.7 17.7 3.7 29 9.3 SE 19 24 10 13 1020.8 1020.6 0.0
15/02:30pm 22.5 18.0 4.3 30 9.0 ENE 17 24 9 13 1021.1 1020.9 0.0
15/02:00pm 22.1 18.3 5.7 34 8.3 SE 15 24 8 13 1021.5 1021.3 0.0
15/01:30pm 21.1 17.8 6.4 38 7.5 SE 13 20 7 11 1021.9 1021.6 0.0
15/01:00pm 20.2 16.5 6.4 40 7.0 E 15 26 8 14 1022.2 1021.9 0.0
15/12:30pm 19.9 16.7 6.7 42 6.7 ESE 13 20 7 11 1022.6 1022.3 0.0
15/12:00pm 19.1 15.9 6.9 45 6.2 E 13 22 7 12 1022.8 1022.5 0.0
15/11:30am 18.4 14.5 6.9 47 5.8 ESE 17 24 9 13 1023.2 1022.9 0.0
15/11:00am 17.7 13.7 6.7 48 5.5 ESE 17 24 9 13 1023.5 1023.2 0.0
15/10:30am 17.5 13.7 7.5 52 5.1 E 17 26 9 14 1023.8 1023.6 0.0
15/10:00am 16.7 13.7 7.6 55 4.6 ESE 13 22 7 12 1024.0 1023.8 0.0
15/09:30am 15.4 11.7 7.9 61 3.8 E 17 22 9 12 1023.9 1023.7 0.0
15/09:00am 14.5 11.5 9.1 70 2.8 E 15 24 8 13 1023.8 1023.6 0.0
15/08:30am 13.2 9.5 9.5 78 1.9 ESE 19 26 10 14 1023.8 1023.6 0.0
15/08:00am 12.2 9.8 10.1 87 1.1 ESE 13 24 7 13 1023.6 1023.3 0.0
15/07:30am 11.1 8.7 9.9 92 0.6 ESE 13 19 7 10 1023.4 1023.1 0.0
15/07:00am 10.2 8.1 9.8 97 0.2 E 11 17 6 9 1023.1 1022.8 0.0
15/06:30am 9.9 8.1 9.5 97 0.2 E 9 17 5 9 1022.7 1022.4 0.0
15/06:00am 10.2 7.7 9.6 96 0.3 ESE 13 20 7 11 1022.5 1022.2 0.0
15/05:30am 10.2 7.7 9.6 96 0.3 ESE 13 22 7 12 1022.2 1021.9 0.0
15/05:00am 10.2 7.7 9.8 97 0.2 SE 13 20 7 11 1022.3 1022.0 0.0
15/04:30am 10.4 7.5 9.8 96 0.3 SE 15 24 8 13 1022.4 1022.1 0.0
15/04:00am 10.5 6.9 9.7 95 0.4 ESE 19 30 10 16 1022.4 1022.1 0.0
15/03:30am 10.5 7.2 9.5 93 0.5 ESE 17 24 9 13 1022.7 1022.4 0.0
15/03:00am 10.7 7.8 9.5 92 0.6 SE 15 22 8 12 1022.9 1022.6 0.0
15/02:30am 10.8 7.8 9.4 91 0.7 ESE 15 26 8 14 1023.4 1023.1 0.0
15/02:00am 10.9 8.4 9.7 92 0.6 ESE 13 20 7 11 1023.4 1023.1 0.0
15/01:30am 11.0 9.2 9.6 91 0.7 ENE 9 11 5 6 1023.7 1023.4 0.0
15/01:00am 11.2 9.1 9.6 90 0.8 ESE 11 20 6 11 1023.7 1023.4 0.0
15/12:30am 11.3 9.5 9.5 89 0.9 SE 9 19 5 10 1023.7 1023.4 0.0
15/12:00am 11.5 9.7 9.5 87 1.0 SE 9 20 5 11 1023.6 1023.3 0.0
 
Date/Time
CDT
Temp
°C
App
Temp
°C
Dew
Point
°C
Rel
Hum
%
Delta-T
°C
Wind Press
QNH
hPa
Press
MSL
hPa
Rain since
9am
mm
Dir  Spd
km/h
Gust
km/h
Spd
kts
Gust
kts
14/11:30pm 11.8 9.2 9.4 85 1.2 S 13 22 7 12 1023.7 1023.4 0.0
14/11:00pm 11.9 8.1 8.9 82 1.5 SSE 19 26 10 14 1023.5 1023.2 0.0
14/10:30pm 12.2 6.5 8.2 76 2.0 SSE 28 37 15 20 1023.4 1023.1 0.0
14/10:00pm 12.2 7.8 8.8 80 1.7 SE 22 33 12 18 1023.5 1023.2 0.0
14/09:30pm 12.6 7.9 9.3 80 1.7 SE 24 33 13 18 1023.2 1022.9 0.0
14/09:00pm 13.1 8.8 9.4 78 1.9 SE 22 35 12 19 1023.3 1023.0 0.0
14/08:30pm 13.9 10.0 9.5 75 2.3 SE 20 30 11 16 1023.1 1022.8 0.0
14/08:00pm 15.3 11.3 9.1 66 3.2 SE 20 30 11 16 1022.9 1022.6 0.0
14/07:30pm 16.5 11.9 8.3 58 4.2 SE 22 35 12 19 1022.8 1022.5 0.0
14/07:00pm 18.2 13.4 7.4 49 5.5 SSE 22 33 12 18 1022.6 1022.3 0.0
14/06:30pm 19.7 15.4 5.4 39 7.1 SSE 17 26 9 14 1022.3 1022.0 0.0

Other Formats:

Comma delimited format used in spreadsheet applications
http://www.bom.gov.au/fwo/IDS60801/IDS60801.94681.axf

JavaScript Object Notation format (JSON) in row-major order
http://www.bom.gov.au/fwo/IDS60801/IDS60801.94681.json